Latest Coastal Weather Observations for Wynyard

IDT60701

Issued at 9:02 am EST Friday 24 May 2019 (issued every 10 minutes, with the page automatically refreshed every 10 minutes)

About coastal observations | Map of coastal stations | Coastal observations for TAS | Marine services | Other Formats
Station Details ID: 091107 Name: WYNYARD AIRPORT Lat: -41.00 Lon: 145.73 Height: 12.0 m
Data from the previous 72 hours. | See also: Recent months at Wynyard
Date/Time
EST
Wind Sea
Height
m
Swell Vis
km
Cloud Weather Temp
°C
Press
hPa
Rain since
9am
mm
Dir  Spd
kts
Gust
kts
Height
m
Period
s
Dir
24/09:00am WNW 6 6 - - - - 10 Cloudy - 8.2 1015.8 0.0
24/08:30am WNW 5 6 - - - - 10 Partly cloudy - 7.7 1015.8 0.0
24/08:00am W 6 7 - - - - 10 Cloudy - 6.9 1015.8 0.0
24/07:32am WNW 6 7 - - - - 10 Partly cloudy - 6.6 1015.7 0.0
24/07:30am WNW 6 7 - - - - 10 Partly cloudy - 6.6 1015.7 0.0
24/07:06am W 7 7 - - - - 9 Partly cloudy - 5.8 1015.9 0.0
24/07:00am W 7 8 - - - - 7 Partly cloudy - 4.8 1015.9 0.0
24/06:31am NW 7 7 - - - - 10 Partly cloudy - 6.3 1016.0 0.0
24/06:30am NW 7 7 - - - - 10 Partly cloudy - 6.2 1016.0 0.0
24/06:05am WNW 5 6 - - - - 5 Partly cloudy - 4.6 1015.6 0.0
24/06:00am WNW 5 6 - - - - 10 Mostly clear - 5.3 1015.5 0.0
24/05:34am WNW 7 8 - - - - 6 Partly cloudy - 5.4 1015.7 0.0
24/05:30am WNW 6 7 - - - - 6 Partly cloudy - 5.5 1015.7 0.0
24/05:01am NW 5 7 - - - - 5 Partly cloudy - 5.9 1015.9 0.0
24/05:00am NW 5 7 - - - - 6 - - 6.0 1015.9 0.0
24/04:58am NW 5 7 - - - - 8 - - 6.3 1015.9 0.0
24/04:41am WNW 7 7 - - - - 5 - - 5.0 1016.0 0.0
24/04:30am WNW 6 8 - - - - 10 - - 6.4 1016.0 0.0
24/04:00am WNW 6 8 - - - - 10 Partly cloudy - 6.4 1016.1 0.0
24/03:53am WNW 7 8 - - - - 7 Partly cloudy - 6.2 1016.2 0.0
24/03:33am NW 5 6 - - - - 9 Partly cloudy - 6.8 1016.0 0.0
24/03:30am WNW 5 5 - - - - 9 Partly cloudy - 6.9 1016.1 0.0
24/03:08am WNW 7 8 - - - - 2 Partly cloudy - 5.4 1016.1 0.0
24/03:06am WNW 7 8 - - - - 3 Partly cloudy - 5.9 1016.1 0.0
24/03:00am WNW 6 7 - - - - 2 Mostly clear - 6.0 1016.2 0.0
24/02:32am NW 5 6 - - - - 5 Partly cloudy - 6.9 1016.6 0.0
24/02:30am NW 5 5 - - - - 6 Partly cloudy - 7.6 1016.6 0.0
24/02:25am NW 5 5 - - - - 7 Partly cloudy - 7.6 1016.7 0.0
24/02:11am WNW 4 6 - - - - 2 Partly cloudy - 6.8 1016.9 0.0
24/02:00am WSW 5 7 - - - - 0.5 Partly cloudy - 6.5 1016.9 0.0
24/01:41am WNW 5 6 - - - - 5 - - 7.0 1017.2 0.0
24/01:35am NNW 5 6 - - - - 6 - - 8.2 1017.2 0.0
24/01:30am NNW 5 7 - - - - 6 - - 8.3 1017.2 0.0
24/01:00am WSW 5 6 - - - - 3 Partly cloudy - 6.8 1017.5 0.0
24/12:30am WNW 5 6 - - - - 5 Partly cloudy - 7.5 1017.9 0.0
24/12:00am WNW 5 6 - - - - 4 Cloudy - 8.4 1017.8 0.0
 
Date/Time
EST
Wind Sea
Height
m
Swell Vis
km
Cloud Weather Temp
°C
Press
hPa
Rain since
9am
mm
Dir  Spd
kts
Gust
kts
Height
m
Period
s
Dir
23/11:30pm WNW 5 6 - - - - 0.9 Partly cloudy - 7.9 1017.9 0.0
23/11:00pm NW 4 5 - - - - 3 - - 7.5 1018.1 0.0
23/10:30pm W 1 3 - - - - 0.7 Partly cloudy - 7.6 1018.0 0.0
23/10:00pm WSW 3 5 - - - - 3 Partly cloudy - 8.1 1018.2 0.0
23/09:30pm WSW 4 5 - - - - 0.7 Partly cloudy - 8.0 1018.5 0.0
23/09:00pm SW 4 5 - - - - 2 Partly cloudy - 8.4 1018.8 0.0
23/08:30pm CALM 0 0 - - - - 4 - - 8.9 1018.8 0.0
23/08:20pm CALM 0 0 - - - - 0.4 Partly cloudy - 9.0 1018.8 0.0
23/08:00pm CALM 0 3 - - - - 5 Partly cloudy - 9.4 1019.1 0.0
23/07:59pm CALM 0 3 - - - - 5 Partly cloudy - 9.4 1019.1 0.0
23/07:44pm SW 3 4 - - - - 8 Partly cloudy - 9.6 1019.2 0.0
23/07:36pm SW 3 4 - - - - 8 Partly cloudy - 9.7 1019.1 0.0
23/07:30pm SW 3 4 - - - - 8 Partly cloudy - 10.0 1019.1 0.0
23/07:13pm S 3 4 - - - - 9 Partly cloudy - 10.3 1019.0 0.0
23/07:00pm CALM 0 0 - - - - 9 Partly cloudy - 10.6 1019.2 0.0
23/06:48pm SW 2 3 - - - - 8 Partly cloudy - 10.5 1019.2 0.0
23/06:30pm CALM 0 3 - - - - 6 Partly cloudy - 10.6 1019.3 0.0
23/06:28pm CALM 0 0 - - - - 6 Partly cloudy - 11.1 1019.3 0.0
23/06:00pm CALM 0 2 - - - - 8 Mostly cloudy - 10.9 1019.4 0.0
23/05:30pm NW 4 5 - - - - 10 Partly cloudy - 12.7 1019.5 0.0
23/05:00pm NNW 4 6 - - - - 10 Partly cloudy - 13.5 1019.4 0.0
23/04:30pm NW 5 7 - - - - 10 Partly cloudy - 14.2 1019.6 0.0
23/04:17pm NW 7 10 - - - - 10 Partly cloudy - 14.4 1019.7 0.0
23/04:00pm NNW 5 9 - - - - 10 Partly cloudy - 14.6 1019.7 0.0
23/03:30pm E 5 7 - - - - 10 Cloudy - 14.5 1019.6 0.0
23/03:00pm ENE 6 7 - - - - 10 Cloudy - 14.0 1020.2 0.0
23/02:30pm E 5 6 - - - - 10 Partly cloudy - 14.2 1020.6 0.0
23/02:00pm ENE 5 7 - - - - 10 Partly cloudy - 14.3 1020.9 0.0
23/01:31pm ENE 5 7 - - - - 10 Partly cloudy - 13.8 1021.4 0.0
23/01:30pm ENE 5 7 - - - - 10 Partly cloudy - 13.8 1021.5 0.0
23/01:00pm NE 5 7 - - - - 10 Partly cloudy - 14.0 1022.0 0.0
23/12:30pm NE 4 6 - - - - 10 Cloudy - 13.9 1022.6 0.0
23/12:09pm NE 5 7 - - - - 10 Partly cloudy - 14.3 1022.8 0.0
23/12:00pm NE 5 6 - - - - 10 Cloudy - 14.8 1023.1 0.0
23/11:33am NE 4 5 - - - - 10 Partly cloudy - 12.9 1023.6 0.0
23/11:30am NE 4 5 - - - - 10 Partly cloudy - 12.9 1023.7 0.0
23/11:00am NNE 2 5 - - - - 10 Partly cloudy - 13.1 1024.0 0.0
23/10:30am CALM 0 2 - - - - 10 Partly cloudy - 12.4 1024.3 0.0
23/10:00am WNW 3 4 - - - - 10 Partly cloudy - 10.6 1024.6 0.0
23/09:30am WNW 6 6 - - - - 10 Partly cloudy - 8.9 1024.8 0.0
23/09:00am WNW 5 6 - - - - 10 - - 7.3 1024.9 0.4
23/08:30am WNW 6 7 - - - - 10 Partly cloudy - 6.1 1025.1 0.4
23/08:00am WNW 6 7 - - - - 10 Partly cloudy - 5.1 1025.2 0.4
23/07:30am WNW 6 7 - - - - 10 Partly cloudy - 4.4 1025.2 0.4
23/07:00am NW 6 7 - - - - 10 Partly cloudy - 4.3 1025.0 0.0
23/06:30am WNW 7 9 - - - - 10 Partly cloudy - 3.8 1025.0 0.0
23/06:00am WNW 8 9 - - - - 10 Mostly cloudy - 3.8 1024.8 0.0
23/05:30am WNW 6 7 - - - - 10 Partly cloudy - 2.7 1024.7 0.0
23/05:00am WNW 5 6 - - - - 10 Partly cloudy - 2.7 1024.6 0.0
23/04:37am WNW 5 6 - - - - 10 Partly cloudy - 2.5 1024.8 0.0
23/04:30am WNW 5 6 - - - - 10 - - 2.2 1024.8 0.0
23/04:13am W 5 6 - - - - 5 - - 2.0 1024.8 0.0
23/04:00am WNW 5 6 - - - - 10 - - 2.7 1024.8 0.0
23/03:30am WNW 5 6 - - - - 9 - - 3.4 1025.1 0.0
23/03:00am WNW 5 6 - - - - 10 Mostly clear - 4.3 1025.4 0.0
23/02:30am W 6 7 - - - - 10 Partly cloudy - 4.0 1025.4 0.0
23/02:00am WNW 6 7 - - - - 10 Cloudy - 5.3 1025.5 0.0
23/01:30am WNW 6 7 - - - - 9 Partly cloudy - 4.0 1025.5 0.0
23/01:00am WNW 7 7 - - - - 8 - - 4.4 1025.7 0.0
23/12:30am WNW 7 7 - - - - 8 - - 4.4 1025.8 0.0
23/12:12am WNW 6 7 - - - - 8 - - 4.2 1025.8 0.0
23/12:00am WNW 7 7 - - - - 5 - - 4.6 1026.0 0.0
 
Date/Time
EST
Wind Sea
Height
m
Swell Vis
km
Cloud Weather Temp
°C
Press
hPa
Rain since
9am
mm
Dir  Spd
kts
Gust
kts
Height
m
Period
s
Dir
22/11:55pm WNW 6 7 - - - - 5 - - 4.9 1026.0 0.0
22/11:30pm WNW 5 6 - - - - 9 Partly cloudy - 5.2 1026.3 0.0
22/11:00pm W 5 7 - - - - 2 Partly cloudy - 5.0 1026.5 0.0
22/10:30pm WNW 5 7 - - - - 0.9 - - 4.6 1026.4 0.0
22/10:00pm W 6 6 - - - - 2 - - 5.7 1026.6 0.0
22/09:46pm WNW 5 6 - - - - 5 - - 5.6 1026.6 0.0
22/09:30pm WNW 5 6 - - - - 8 - - 6.4 1026.5 0.0
22/09:25pm W 6 6 - - - - 8 - - 6.4 1026.4 0.0
22/09:00pm W 5 6 - - - - 2 - - 5.9 1026.5 0.0
22/08:46pm W 5 5 - - - - 5 - - 6.6 1026.5 0.0
22/08:30pm W 5 6 - - - - 10 - - 7.1 1026.5 0.0
22/08:25pm W 5 6 - - - - 9 - - 6.9 1026.4 0.0
22/08:00pm W 4 5 - - - - 4 - - 7.1 1026.4 0.0
22/07:42pm W 4 5 - - - - 5 - - 6.9 1026.4 0.0
22/07:33pm WSW 4 5 - - - - 9 - - 6.9 1026.3 0.0
22/07:30pm WSW 4 5 - - - - 10 - - 7.3 1026.3 0.0
22/07:08pm WSW 4 4 - - - - 4 - - 8.0 1026.3 0.0
22/07:00pm WSW 3 4 - - - - 10 - - 8.2 1026.2 0.0
22/06:30pm SW 5 5 - - - - 10 - - 7.8 1025.9 0.0
22/06:00pm WSW 3 4 - - - - 10 - - 8.7 1025.6 0.0
22/05:30pm W 3 4 - - - - 10 - - 10.3 1025.4 0.0
22/05:00pm NW 5 6 - - - - 10 - - 13.2 1025.3 0.0
22/04:30pm NW 6 8 - - - - 10 - - 15.1 1025.1 0.0
22/04:00pm NNW 9 13 - - - - 10 - - 15.5 1024.8 0.0
22/03:30pm NW 9 13 - - - - 10 - - 15.8 1024.7 0.0
22/03:00pm NW 9 11 - - - - 10 Mostly clear - 15.6 1024.7 0.0
22/02:30pm NNW 10 14 - - - - 10 Partly cloudy - 16.4 1024.7 0.0
22/02:00pm NNW 11 15 - - - - 10 Partly cloudy - 16.2 1024.7 0.0
22/01:30pm WNW 10 13 - - - - 10 - - 16.3 1024.9 0.0
22/01:00pm WNW 12 15 - - - - 10 - - 16.9 1025.0 0.0
22/12:30pm WNW 9 14 - - - - 10 - - 17.1 1025.2 0.0
22/12:00pm WNW 12 15 - - - - 10 - - 16.5 1025.4 0.0
22/11:30am WNW 8 13 - - - - 10 - - 16.2 1025.7 0.0
22/11:00am W 6 8 - - - - 10 - - 15.6 1025.9 0.0
22/10:30am WNW 4 6 - - - - 10 - - 15.0 1025.8 0.0
22/10:00am W 5 7 - - - - 10 - - 14.1 1025.7 0.0
22/09:30am W 4 6 - - - - 10 - - 12.9 1025.6 0.0
22/09:00am WSW 3 4 - - - - 10 - - 11.6 1025.5 0.2
22/08:30am WNW 3 3 - - - - 9 - - 10.3 1025.2 0.2
22/08:00am W 6 7 - - - - 10 - - 9.2 1024.9 0.2
22/07:30am WSW 6 8 - - - - 10 - - 8.8 1024.6 0.2
22/07:00am W 7 8 - - - - 10 - - 7.8 1024.2 0.2
22/06:32am NW 6 7 - - - - 10 - - 9.2 1023.8 0.2
22/06:30am NW 6 7 - - - - 9 - - 9.4 1023.8 0.2
22/06:00am WNW 5 7 - - - - 0.3 Mostly clear - 7.9 1023.4 0.2
22/05:30am NW 5 6 - - - - 2 Partly cloudy - 9.7 1023.0 0.2
22/05:00am WNW 4 5 - - - - 2 Partly cloudy - 9.3 1022.8 0.2
22/04:36am NW 3 4 - - - - 5 Partly cloudy - 10.6 1022.5 0.2
22/04:30am NW 3 4 - - - - 7 Partly cloudy - 10.9 1022.5 0.2
22/04:00am NW 5 6 - - - - 9 Partly cloudy - 11.6 1022.4 0.2
22/03:30am NW 3 4 - - - - 7 Partly cloudy - 10.8 1022.2 0.2
22/03:00am NW 5 6 - - - - 9 Cloudy - 10.5 1022.3 0.2
22/02:30am NNW 4 6 - - - - 7 Partly cloudy - 10.2 1022.1 0.2
22/02:16am CALM 0 0 - - - - 10 Partly cloudy - 9.7 1022.2 0.2
22/02:00am CALM 0 0 - - - - 3 Partly cloudy - 9.4 1022.1 0.2
22/01:44am CALM 0 0 - - - - 5 Partly cloudy - 10.0 1021.9 0.2
22/01:30am CALM 0 0 - - - - 7 Partly cloudy - 10.3 1022.0 0.2
22/01:00am CALM 0 0 - - - - 8 Cloudy - 10.2 1021.9 0.2
22/12:30am CALM 0 0 - - - - 8 Partly cloudy - 9.9 1022.0 0.2
22/12:00am NW 1 3 - - - - 7 Cloudy - 10.1 1021.9 0.2
 
Date/Time
EST
Wind Sea
Height
m
Swell Vis
km
Cloud Weather Temp
°C
Press
hPa
Rain since
9am
mm
Dir  Spd
kts
Gust
kts
Height
m
Period
s
Dir
21/11:30pm NW 2 3 - - - - 8 Partly cloudy - 8.6 1021.7 0.2
21/11:29pm NW 2 3 - - - - 9 Partly cloudy - 8.7 1021.7 0.2
21/11:00pm NW 3 3 - - - - 6 Partly cloudy - 7.5 1021.7 0.2
21/10:30pm N 3 5 - - - - 0.2 Partly cloudy - 8.4 1021.7 0.2
21/10:00pm N 3 4 - - - - 0.2 Partly cloudy - 8.8 1021.6 0.2
21/09:30pm NNW 2 3 - - - - 7 Partly cloudy - 9.1 1021.6 0.2
21/09:12pm NNW 4 5 - - - - 3 Partly cloudy - 10.4 1021.4 0.2
21/09:00pm CALM 0 2 - - - - 9 Partly cloudy - 10.5 1021.3 0.2
21/08:30pm NNW 3 4 - - - - 10 - - 11.1 1021.2 0.2
21/08:00pm CALM 0 3 - - - - 10 Partly cloudy - 12.0 1020.9 0.2
21/07:30pm NW 3 4 - - - - 10 Partly cloudy - 12.2 1020.7 0.2
21/07:00pm W 7 11 - - - - 10 Partly cloudy - 13.5 1020.5 0.2
21/06:30pm W 6 12 - - - - 10 Partly cloudy - 13.7 1020.4 0.2
21/06:00pm WNW 4 6 - - - - 10 Cloudy - 14.0 1020.0 0.2
21/05:30pm NW 4 5 - - - - 10 Partly cloudy - 14.3 1019.8 0.2
21/05:00pm WNW 7 11 - - - - 10 Partly cloudy - 14.4 1019.6 0.2
21/04:30pm WNW 10 15 - - - - 10 Cloudy - 15.1 1019.5 0.2
21/04:00pm WNW 11 15 - - - - 10 Partly cloudy - 15.5 1019.0 0.2
21/03:30pm WNW 9 13 - - - - 10 Partly cloudy - 15.4 1018.7 0.2
21/03:00pm WNW 11 16 - - - - 10 Cloudy - 15.4 1018.5 0.2
21/02:30pm WNW 12 16 - - - - 10 Partly cloudy - 15.9 1018.3 0.2
21/02:00pm W 9 13 - - - - 10 Partly cloudy - 16.2 1018.2 0.2
21/01:30pm W 15 24 - - - - 10 Partly cloudy - 15.1 1018.2 0.2
21/01:21pm W 13 24 - - - - 10 Partly cloudy - 15.2 1018.1 0.2
21/01:00pm WNW 9 12 - - - - 10 Partly cloudy - 16.0 1018.0 0.2
21/12:30pm W 11 15 - - - - 10 Partly cloudy - 15.8 1018.1 0.2
21/12:00pm WNW 14 20 - - - - 10 Cloudy - 15.8 1018.4 0.2
21/11:30am NW 9 12 - - - - 10 Partly cloudy - 15.7 1018.5 0.2
21/11:00am WNW 10 14 - - - - 10 Partly cloudy - 14.7 1018.7 0.2
21/10:30am W 8 11 - - - - 10 Partly cloudy - 14.4 1018.7 0.2
21/10:29am W 8 11 - - - - 10 Partly cloudy - 14.2 1018.7 0.2
21/10:25am W 9 14 - - - - 10 Partly cloudy - 14.1 1018.8 0.2
21/10:00am WNW 9 11 - - - - 3 Partly cloudy - 13.5 1018.7 0.0
21/09:39am WNW 10 14 - - - - 5 Partly cloudy - 13.7 1018.6 0.0
21/09:33am WNW 10 14 - - - - 10 Partly cloudy - 13.9 1018.7 0.0
21/09:30am WNW 10 13 - - - - 10 Partly cloudy - 13.9 1018.6 0.0
21/09:15am WNW 9 12 - - - - 10 Partly cloudy - 14.2 1018.4 0.0

Other formats

Comma delimited format used in spreadsheet applications
http://www.bom.gov.au/fwo/IDT60701/IDT60701.95957.axf

JavaScript Object Notation format (JSON) in row-major order
http://www.bom.gov.au/fwo/IDT60701/IDT60701.95957.json

Data quality

Most of these data are generated automatically and are frequently updated. Quality checks on data are not normally performed. It is possible for incorrect values to appear. Refer to information at About Latest Weather Observations and please check the disclaimer before using these data.